createdAt,value
2018-12-20T00:00:46.001Z,14.77
2018-12-20T00:03:15.410Z,13.80
2018-12-20T00:05:44.711Z,13.10
2018-12-20T00:08:14.106Z,13.70
2018-12-20T00:10:43.540Z,14.70
2018-12-20T00:13:12.804Z,14.73
2018-12-20T00:15:41.992Z,13.33
2018-12-20T00:18:11.175Z,13.57
2018-12-20T00:20:40.414Z,12.53
2018-12-20T00:23:09.799Z,13.20
2018-12-20T00:25:39.013Z,12.73
2018-12-20T00:28:08.179Z,11.23
2018-12-20T00:30:37.451Z,12.60
2018-12-20T00:33:06.600Z,11.53
2018-12-20T00:35:35.821Z,14.10
2018-12-20T00:38:06.030Z,10.77
2018-12-20T00:40:35.315Z,10.63
2018-12-20T00:43:04.548Z,9.67
2018-12-20T00:45:33.746Z,9.63
2018-12-20T00:48:03.104Z,10.57
2018-12-20T00:50:32.295Z,10.40
2018-12-20T00:53:01.454Z,9.13
2018-12-20T00:55:30.610Z,8.37
2018-12-20T00:57:59.793Z,8.90
2018-12-20T01:00:28.966Z,7.67
2018-12-20T01:02:58.258Z,7.97
2018-12-20T01:05:27.583Z,6.73
2018-12-20T01:07:56.726Z,7.07
2018-12-20T01:10:25.905Z,6.03
2018-12-20T01:12:55.063Z,5.37
2018-12-20T01:15:24.485Z,6.87
2018-12-20T01:17:53.665Z,7.17
2018-12-20T01:20:23.280Z,6.00
2018-12-20T01:22:52.513Z,9.90
2018-12-20T01:25:21.785Z,4.67
2018-12-20T01:27:51.012Z,4.47
2018-12-20T01:30:20.269Z,5.53
2018-12-20T01:32:49.439Z,4.33
2018-12-20T01:35:18.599Z,4.33
2018-12-20T01:37:47.888Z,4.57
2018-12-20T01:40:17.266Z,4.17
2018-12-20T01:42:46.570Z,3.80
2018-12-20T01:45:15.847Z,4.93
2018-12-20T01:47:45.081Z,5.07
2018-12-20T01:50:14.244Z,3.33
2018-12-20T01:52:43.904Z,4.17
2018-12-20T01:55:13.152Z,4.47
2018-12-20T01:57:42.406Z,4.23
2018-12-20T02:00:12.057Z,3.47
2018-12-20T02:02:41.289Z,3.53
2018-12-20T02:05:10.427Z,4.03
2018-12-20T02:07:39.578Z,2.97
2018-12-20T02:10:08.780Z,3.53
2018-12-20T02:12:37.956Z,4.00
2018-12-20T02:15:07.548Z,2.80
2018-12-20T02:17:36.835Z,3.23
2018-12-20T02:20:06.543Z,2.83
2018-12-20T02:22:35.745Z,3.17
2018-12-20T02:25:05.699Z,3.37
2018-12-20T02:27:35.067Z,3.90
2018-12-20T02:30:04.464Z,2.67
2018-12-20T02:32:33.633Z,2.90
2018-12-20T02:35:03.120Z,2.40
2018-12-20T02:37:32.428Z,2.27
2018-12-20T02:40:01.573Z,2.33
2018-12-20T02:42:30.937Z,2.77
2018-12-20T02:45:00.301Z,2.30
2018-12-20T02:47:29.656Z,2.20
2018-12-20T02:49:58.945Z,4.30
2018-12-20T02:52:28.218Z,2.17
2018-12-20T02:54:57.407Z,2.37
2018-12-20T02:57:26.583Z,2.20
2018-12-20T02:59:55.889Z,2.10
2018-12-20T03:02:25.162Z,2.33
2018-12-20T03:04:54.312Z,1.90
2018-12-20T03:07:23.442Z,2.50
2018-12-20T03:09:52.735Z,2.03
2018-12-20T03:12:22.302Z,3.00
2018-12-20T03:14:51.623Z,2.73
2018-12-20T03:17:20.942Z,2.03
2018-12-20T03:19:50.169Z,3.50
2018-12-20T03:22:19.343Z,3.13
2018-12-20T03:24:48.723Z,1.83
2018-12-20T03:27:18.081Z,2.27
2018-12-20T03:29:47.422Z,2.03
2018-12-20T03:32:16.716Z,1.70
2018-12-20T03:34:45.994Z,1.93
2018-12-20T03:37:15.362Z,1.97
2018-12-20T03:39:44.584Z,1.93
2018-12-20T03:42:13.946Z,1.80
2018-12-20T03:44:43.452Z,2.97
2018-12-20T03:47:12.824Z,2.00
2018-12-20T03:49:42.044Z,2.43
2018-12-20T03:52:11.279Z,2.07
2018-12-20T03:54:40.573Z,2.10
2018-12-20T03:57:09.801Z,1.97
2018-12-20T03:59:38.980Z,2.00
2018-12-20T04:02:08.481Z,2.47
2018-12-20T04:04:37.729Z,2.63
2018-12-20T04:07:07.091Z,4.20
2018-12-20T04:09:36.627Z,2.00
2018-12-20T04:12:06.005Z,2.83
2018-12-20T04:14:35.340Z,2.10
2018-12-20T04:17:04.716Z,1.70
2018-12-20T04:19:33.980Z,2.80
2018-12-20T04:22:03.189Z,2.47
2018-12-20T04:24:32.685Z,1.90
2018-12-20T04:27:01.981Z,2.77
2018-12-20T04:29:31.407Z,2.83
2018-12-20T04:32:00.730Z,2.47
2018-12-20T04:34:29.909Z,2.47
2018-12-20T04:36:59.138Z,2.37
2018-12-20T04:39:28.328Z,2.53
2018-12-20T04:41:57.562Z,3.20
2018-12-20T04:44:26.760Z,2.00
2018-12-20T04:46:56.050Z,2.60
2018-12-20T04:49:25.381Z,2.80
2018-12-20T04:51:54.632Z,2.03
2018-12-20T04:54:23.981Z,1.87
2018-12-20T04:56:53.394Z,1.93
2018-12-20T04:59:23.513Z,2.27
2018-12-20T05:01:52.797Z,1.80
2018-12-20T05:04:22.064Z,1.87
2018-12-20T05:06:51.210Z,2.87
2018-12-20T05:09:20.398Z,2.60
2018-12-20T05:11:49.650Z,2.33
2018-12-20T05:14:19.093Z,1.93
2018-12-20T05:16:48.429Z,2.73
2018-12-20T05:19:17.778Z,2.73
2018-12-20T05:21:47.060Z,3.13
2018-12-20T05:24:16.457Z,2.87
2018-12-20T05:26:45.988Z,4.10
2018-12-20T05:29:15.147Z,1.53
2018-12-20T05:31:44.468Z,6.77
2018-12-20T05:34:13.703Z,2.00
2018-12-20T05:36:43.182Z,3.47
2018-12-20T05:39:12.370Z,2.27
2018-12-20T05:41:41.764Z,1.90
2018-12-20T05:44:11.084Z,1.73
2018-12-20T05:46:40.864Z,2.20
2018-12-20T05:49:10.164Z,2.90
2018-12-20T05:51:39.638Z,2.63
2018-12-20T05:54:08.967Z,1.80
2018-12-20T05:56:38.112Z,2.20
2018-12-20T05:59:07.291Z,2.27
2018-12-20T06:01:36.597Z,2.33
2018-12-20T06:04:06.473Z,2.43
2018-12-20T06:06:35.724Z,2.37
2018-12-20T06:09:07.316Z,4.00
2018-12-20T06:11:36.572Z,2.90
2018-12-20T06:14:06.003Z,4.03
2018-12-20T06:16:35.391Z,2.10
2018-12-20T06:19:04.999Z,2.30
2018-12-20T06:21:34.235Z,2.60
2018-12-20T06:24:03.399Z,2.87
2018-12-20T06:26:32.570Z,2.10
2018-12-20T06:29:01.711Z,4.50
2018-12-20T06:31:30.870Z,2.27
2018-12-20T06:34:00.031Z,2.73
2018-12-20T06:36:29.172Z,2.33
2018-12-20T06:38:58.341Z,3.60
2018-12-20T06:41:27.521Z,2.10
2018-12-20T06:43:56.706Z,1.80
2018-12-20T06:46:26.865Z,1.87
2018-12-20T06:48:56.064Z,2.07
2018-12-20T06:51:25.238Z,3.30
2018-12-20T06:53:54.410Z,3.67
2018-12-20T06:56:24.689Z,1.93
2018-12-20T06:58:53.863Z,3.50
2018-12-20T07:01:22.994Z,2.27
2018-12-20T07:03:52.159Z,2.77
2018-12-20T07:06:21.295Z,2.63
2018-12-20T07:08:50.526Z,2.67
2018-12-20T07:11:19.709Z,2.47
2018-12-20T07:13:48.855Z,2.53
2018-12-20T07:16:18.032Z,2.47
2018-12-20T07:18:47.189Z,2.30
2018-12-20T07:21:16.637Z,2.13
2018-12-20T07:23:45.791Z,4.43
2018-12-20T07:26:14.939Z,1.97
2018-12-20T07:28:44.136Z,2.27
2018-12-20T07:31:13.301Z,1.70
2018-12-20T07:33:42.431Z,4.40
2018-12-20T07:36:11.590Z,2.90
2018-12-20T07:38:40.720Z,2.43
2018-12-20T07:41:09.892Z,4.47
2018-12-20T07:43:39.167Z,2.17
2018-12-20T07:46:08.339Z,2.90
2018-12-20T07:48:37.478Z,2.23
2018-12-20T07:51:06.615Z,1.90
2018-12-20T07:53:36.428Z,2.10
2018-12-20T07:56:05.616Z,3.23
2018-12-20T07:58:34.772Z,4.27
2018-12-20T08:01:04.553Z,4.17
2018-12-20T08:03:33.711Z,2.67
2018-12-20T08:06:02.876Z,2.13
2018-12-20T08:08:32.024Z,2.77
2018-12-20T08:11:05.201Z,2.20
2018-12-20T08:13:34.344Z,2.53
2018-12-20T08:16:03.529Z,2.47
2018-12-20T08:18:32.677Z,2.00
2018-12-20T08:21:01.823Z,3.10
2018-12-20T08:23:30.976Z,2.77
2018-12-20T08:26:00.147Z,4.30
2018-12-20T08:28:29.288Z,4.63
2018-12-20T08:30:58.446Z,2.37
2018-12-20T08:33:27.591Z,2.40
2018-12-20T08:35:56.775Z,2.33
2018-12-20T08:38:26.427Z,1.80
2018-12-20T08:40:55.785Z,3.70
2018-12-20T08:43:24.946Z,3.40
2018-12-20T08:45:54.135Z,2.90
2018-12-20T08:48:23.324Z,1.97
2018-12-20T08:50:52.498Z,3.90
2018-12-20T08:53:21.735Z,4.27
2018-12-20T08:55:50.918Z,2.37
2018-12-20T08:58:20.166Z,3.70
2018-12-20T09:00:49.316Z,3.70
2018-12-20T09:03:18.473Z,2.53
2018-12-20T09:05:47.617Z,6.13
2018-12-20T09:08:16.778Z,3.03
2018-12-20T09:10:45.929Z,3.60
2018-12-20T09:13:15.093Z,3.53
2018-12-20T09:15:44.250Z,4.37
2018-12-20T09:18:13.396Z,2.67
2018-12-20T09:20:42.530Z,2.43
2018-12-20T09:23:11.698Z,2.97
2018-12-20T09:25:40.915Z,3.40
2018-12-20T09:28:10.073Z,2.30
2018-12-20T09:30:39.227Z,1.67
2018-12-20T09:33:08.987Z,2.83
2018-12-20T09:35:38.165Z,3.87
2018-12-20T09:38:07.325Z,2.77
2018-12-20T09:40:36.498Z,2.03
2018-12-20T09:43:05.659Z,4.30
2018-12-20T09:45:34.809Z,2.70
2018-12-20T09:48:06.206Z,3.03
2018-12-20T09:50:35.425Z,3.03
2018-12-20T09:53:04.594Z,4.53
2018-12-20T09:55:33.779Z,3.90
2018-12-20T09:58:02.936Z,3.13
2018-12-20T10:00:32.077Z,2.83
2018-12-20T10:03:01.232Z,4.07
2018-12-20T10:05:30.372Z,3.30
2018-12-20T10:07:59.514Z,2.97
2018-12-20T10:10:28.683Z,5.23
2018-12-20T10:12:57.853Z,3.27
2018-12-20T10:15:27.034Z,2.73
2018-12-20T10:17:56.183Z,3.90
2018-12-20T10:20:25.483Z,2.50
2018-12-20T10:22:54.631Z,6.30
2018-12-20T10:25:23.773Z,2.67
2018-12-20T10:27:52.939Z,6.17
2018-12-20T10:30:22.090Z,2.93
2018-12-20T10:32:51.240Z,3.03
2018-12-20T10:35:20.478Z,3.77
2018-12-20T10:37:49.633Z,5.13
2018-12-20T10:40:18.805Z,3.47
2018-12-20T10:42:47.965Z,3.87
2018-12-20T10:45:17.166Z,4.17
2018-12-20T10:47:46.350Z,4.07
2018-12-20T10:50:15.513Z,7.60
2018-12-20T10:52:44.674Z,3.07
2018-12-20T10:55:13.842Z,3.43
2018-12-20T10:57:43.006Z,5.50
2018-12-20T11:00:12.418Z,2.93
2018-12-20T11:02:47.032Z,6.33
2018-12-20T11:05:24.972Z,4.80
2018-12-20T11:07:59.494Z,3.93
2018-12-20T11:10:29.319Z,5.13
2018-12-20T11:13:00.549Z,5.37
2018-12-20T11:15:29.712Z,4.87
2018-12-20T11:17:58.881Z,7.03
2018-12-20T11:20:28.204Z,4.27
2018-12-20T11:22:57.375Z,3.30
2018-12-20T11:25:26.761Z,3.97
2018-12-20T11:27:55.923Z,6.57
2018-12-20T11:30:25.065Z,3.87
2018-12-20T11:32:54.221Z,3.93
2018-12-20T11:35:23.725Z,6.33
2018-12-20T11:37:52.881Z,4.67
2018-12-20T11:40:22.021Z,5.33
2018-12-20T11:42:51.184Z,4.33
2018-12-20T11:45:20.354Z,5.30
2018-12-20T11:47:49.529Z,3.83
2018-12-20T11:50:18.693Z,3.13
2018-12-20T11:52:48.857Z,4.10
2018-12-20T11:55:18.111Z,3.87
2018-12-20T11:57:47.340Z,5.17
2018-12-20T12:00:16.564Z,5.10
2018-12-20T12:02:45.722Z,4.97
2018-12-20T12:05:14.903Z,4.63
2018-12-20T12:07:44.089Z,4.30
2018-12-20T12:10:13.275Z,5.20
2018-12-20T12:12:42.456Z,4.33
2018-12-20T12:15:11.616Z,3.40
2018-12-20T12:17:40.797Z,6.20
2018-12-20T12:20:10.256Z,6.73
2018-12-20T12:22:39.473Z,4.10
2018-12-20T12:25:08.971Z,6.07
2018-12-20T12:27:38.135Z,6.30
2018-12-20T12:30:09.946Z,5.37
2018-12-20T12:32:45.888Z,6.53
2018-12-20T12:35:15.907Z,5.47
2018-12-20T12:37:46.012Z,5.57
2018-12-20T12:40:15.215Z,5.60
2018-12-20T12:42:45.713Z,2.80
2018-12-20T12:45:14.979Z,3.30
2018-12-20T12:47:49.527Z,3.77
2018-12-20T12:50:18.811Z,2.83
2018-12-20T12:52:48.018Z,2.57
2018-12-20T12:55:17.214Z,2.33
2018-12-20T12:57:46.510Z,3.40
2018-12-20T13:00:20.369Z,4.53
2018-12-20T13:02:49.671Z,2.80
2018-12-20T13:05:19.303Z,3.20
2018-12-20T13:07:48.539Z,3.03
2018-12-20T13:10:17.777Z,2.77
2018-12-20T13:12:47.019Z,2.93
2018-12-20T13:15:16.559Z,4.97
2018-12-20T13:17:46.058Z,4.00
2018-12-20T13:20:16.269Z,3.57
2018-12-20T13:22:45.556Z,2.17
2018-12-20T13:25:14.896Z,2.83
2018-12-20T13:27:44.113Z,2.53
2018-12-20T13:30:13.894Z,3.90
2018-12-20T13:32:43.162Z,5.23
2018-12-20T13:35:12.546Z,2.83
2018-12-20T13:37:41.790Z,3.60
2018-12-20T13:40:12.211Z,2.60
2018-12-20T13:42:41.429Z,3.10
2018-12-20T13:45:10.692Z,2.20
2018-12-20T13:47:39.955Z,3.50
2018-12-20T13:50:09.598Z,5.07
2018-12-20T13:52:38.931Z,4.20
2018-12-20T13:55:08.297Z,2.63
2018-12-20T13:57:37.589Z,3.17
2018-12-20T14:00:10.909Z,2.93
2018-12-20T14:02:40.173Z,2.33
2018-12-20T14:05:09.452Z,4.17
2018-12-20T14:07:39.001Z,3.53
2018-12-20T14:10:09.161Z,6.37
2018-12-20T14:12:38.616Z,3.80
2018-12-20T14:15:08.776Z,5.17
2018-12-20T14:17:38.195Z,3.57
2018-12-20T14:20:08.231Z,3.57
2018-12-20T14:22:37.524Z,2.77
2018-12-20T14:25:07.131Z,4.17
2018-12-20T14:27:36.596Z,5.17
2018-12-20T14:30:08.442Z,3.83
2018-12-20T14:32:37.739Z,5.43
2018-12-20T14:35:07.052Z,4.17
2018-12-20T14:37:36.312Z,3.63
2018-12-20T14:40:07.597Z,3.33
2018-12-20T14:42:37.997Z,4.97
2018-12-20T14:45:07.552Z,4.40
2018-12-20T14:47:37.908Z,4.33
2018-12-20T14:50:08.918Z,6.20
2018-12-20T14:52:38.604Z,3.73
2018-12-20T14:55:09.100Z,6.00
2018-12-20T14:57:38.430Z,5.23
2018-12-20T15:00:10.953Z,4.47
2018-12-20T15:02:42.138Z,5.17
2018-12-20T15:05:11.540Z,5.43
2018-12-20T15:07:40.846Z,4.30
2018-12-20T15:10:11.602Z,3.97
2018-12-20T15:12:41.532Z,3.60
2018-12-20T15:15:10.823Z,6.03
2018-12-20T15:17:40.123Z,3.17
2018-12-20T15:20:09.878Z,3.80
2018-12-20T15:22:39.214Z,6.93
2018-12-20T15:25:08.641Z,2.83
2018-12-20T15:27:37.948Z,2.77
2018-12-20T15:30:08.681Z,3.90
2018-12-20T15:32:37.973Z,7.40
2018-12-20T15:35:07.511Z,3.23
2018-12-20T15:37:37.899Z,3.50
2018-12-20T15:40:08.635Z,3.37
2018-12-20T15:42:38.920Z,6.93
2018-12-20T15:45:09.116Z,3.90
2018-12-20T15:47:38.443Z,4.00
2018-12-20T15:50:12.188Z,3.17
2018-12-20T15:52:42.856Z,2.27
2018-12-20T15:55:12.157Z,3.87
2018-12-20T15:57:41.589Z,2.30
2018-12-20T16:00:11.219Z,2.33
2018-12-20T16:02:40.503Z,1.97
2018-12-20T16:05:10.030Z,2.63
2018-12-20T16:07:39.313Z,2.60
2018-12-20T16:10:09.994Z,2.10
2018-12-20T16:12:39.640Z,2.90
2018-12-20T16:15:09.139Z,4.23
2018-12-20T16:17:38.437Z,2.37
2018-12-20T16:20:08.230Z,1.83
2018-12-20T16:22:37.485Z,1.87
2018-12-20T16:25:07.918Z,3.47
2018-12-20T16:27:37.189Z,1.77
2018-12-20T16:30:08.803Z,4.13
2018-12-20T16:32:38.136Z,1.97
2018-12-20T16:35:08.449Z,3.37
2018-12-20T16:37:37.724Z,2.50
2018-12-20T16:40:07.413Z,2.47
2018-12-20T16:42:36.686Z,3.40
2018-12-20T16:45:07.322Z,2.13
2018-12-20T16:47:37.729Z,3.50
2018-12-20T16:50:09.146Z,2.77
2018-12-20T16:52:38.431Z,3.43
2018-12-20T16:55:08.680Z,3.00
2018-12-20T16:57:37.989Z,4.50
2018-12-20T17:00:09.574Z,3.27
2018-12-20T17:02:38.966Z,3.40
2018-12-20T17:05:08.398Z,3.50
2018-12-20T17:07:37.667Z,3.10
2018-12-20T17:10:07.720Z,4.50
2018-12-20T17:12:37.057Z,2.53
2018-12-20T17:15:06.682Z,3.60
2018-12-20T17:17:35.970Z,3.47
2018-12-20T17:20:07.369Z,3.17
2018-12-20T17:22:36.930Z,3.57
2018-12-20T17:25:06.370Z,3.80
2018-12-20T17:27:37.148Z,4.73
2018-12-20T17:30:08.336Z,4.20
2018-12-20T17:32:37.619Z,4.53
2018-12-20T17:35:07.192Z,4.20
2018-12-20T17:37:36.483Z,3.80
2018-12-20T17:40:06.759Z,5.00
2018-12-20T17:42:36.051Z,6.00
2018-12-20T17:45:07.030Z,4.80
2018-12-20T17:47:37.345Z,5.10
2018-12-20T17:50:07.769Z,3.63
2018-12-20T17:52:37.043Z,4.90
2018-12-20T17:55:06.516Z,4.37
2018-12-20T17:57:35.951Z,5.40
2018-12-20T18:00:06.869Z,5.87
2018-12-20T18:02:36.177Z,4.73
2018-12-20T18:05:07.013Z,4.00
2018-12-20T18:07:36.748Z,3.80
2018-12-20T18:10:09.761Z,7.40
2018-12-20T18:12:39.182Z,6.37
2018-12-20T18:15:10.523Z,4.47
2018-12-20T18:17:40.676Z,4.97
2018-12-20T18:20:11.263Z,5.30
2018-12-20T18:22:40.745Z,3.60
2018-12-20T18:25:10.194Z,4.73
2018-12-20T18:27:39.508Z,5.70
2018-12-20T18:30:11.159Z,4.73
2018-12-20T18:32:41.573Z,4.10
2018-12-20T18:35:10.952Z,5.20
2018-12-20T18:37:41.343Z,3.47
2018-12-20T18:40:10.732Z,5.77
2018-12-20T18:42:40.178Z,5.90
2018-12-20T18:45:09.885Z,3.73
2018-12-20T18:47:40.284Z,4.93
2018-12-20T18:50:10.854Z,5.20
2018-12-20T18:52:40.133Z,4.40
2018-12-20T18:55:09.467Z,5.43
2018-12-20T18:57:38.860Z,5.23
2018-12-20T19:00:10.974Z,3.87
2018-12-20T19:02:40.284Z,3.37
2018-12-20T19:05:09.593Z,6.20
2018-12-20T19:07:39.067Z,4.93
2018-12-20T19:10:10.133Z,4.27
2018-12-20T19:12:40.601Z,4.77
2018-12-20T19:15:10.318Z,4.33
2018-12-20T19:17:39.613Z,4.17
2018-12-20T19:20:16.045Z,5.63
2018-12-20T19:22:41.289Z,5.10
2018-12-20T19:25:10.614Z,4.60
2018-12-20T19:27:40.747Z,4.80
2018-12-20T19:30:12.381Z,3.73
2018-12-20T19:32:41.674Z,6.73
2018-12-20T19:35:11.004Z,5.13
2018-12-20T19:37:40.298Z,5.83
2018-12-20T19:40:11.734Z,5.80
2018-12-20T19:42:41.010Z,6.97
2018-12-20T19:45:10.436Z,6.27
2018-12-20T19:47:40.748Z,5.93
2018-12-20T19:50:11.026Z,6.17
2018-12-20T19:52:40.318Z,5.43
2018-12-20T19:55:09.743Z,5.37
2018-12-20T19:57:39.158Z,5.27
2018-12-20T20:00:12.223Z,5.37
2018-12-20T20:02:41.550Z,4.20
2018-12-20T20:05:11.177Z,4.47
2018-12-20T20:07:40.461Z,5.33
2018-12-20T20:10:11.411Z,9.23
2018-12-20T20:12:40.739Z,5.37
2018-12-20T20:15:16.451Z,4.97
2018-12-20T20:17:43.290Z,3.93
2018-12-20T20:20:14.222Z,5.80
2018-12-20T20:22:43.865Z,4.13
2018-12-20T20:25:13.207Z,5.73
2018-12-20T20:27:42.564Z,3.63
2018-12-20T20:30:14.444Z,4.03
2018-12-20T20:32:43.844Z,4.37
2018-12-20T20:35:13.249Z,3.33
2018-12-20T20:37:42.549Z,4.30
2018-12-20T20:40:12.299Z,3.60
2018-12-20T20:42:41.641Z,5.10
2018-12-20T20:45:10.933Z,3.50
2018-12-20T20:47:40.250Z,4.20
2018-12-20T20:50:09.960Z,4.40
2018-12-20T20:52:39.278Z,4.10
2018-12-20T20:55:09.229Z,4.20
2018-12-20T20:57:38.538Z,2.80
2018-12-20T21:00:11.324Z,4.37
2018-12-20T21:02:40.578Z,4.90
2018-12-20T21:05:10.489Z,4.37
2018-12-20T21:07:39.962Z,4.17
2018-12-20T21:10:11.388Z,5.37
2018-12-20T21:12:40.787Z,5.27
2018-12-20T21:15:13.084Z,4.57
2018-12-20T21:17:42.384Z,4.47
2018-12-20T21:20:13.315Z,5.57
2018-12-20T21:22:43.016Z,4.63
2018-12-20T21:25:13.320Z,4.57
2018-12-20T21:27:42.625Z,5.00
2018-12-20T21:30:12.042Z,5.07
2018-12-20T21:32:41.319Z,4.27
2018-12-20T21:35:11.581Z,3.57
2018-12-20T21:37:40.862Z,4.07
2018-12-20T21:40:10.411Z,5.60
2018-12-20T21:42:40.768Z,4.57
2018-12-20T21:45:10.466Z,5.27
2018-12-20T21:47:40.237Z,5.13
2018-12-20T21:50:11.121Z,3.13
2018-12-20T21:52:40.354Z,4.50
2018-12-20T21:55:10.407Z,4.93
2018-12-20T21:57:39.700Z,4.37
2018-12-20T22:00:10.831Z,3.23
2018-12-20T22:02:41.004Z,4.57
2018-12-20T22:05:10.256Z,3.83
2018-12-20T22:07:39.502Z,4.07
2018-12-20T22:10:09.235Z,3.57
2018-12-20T22:12:38.401Z,5.37
2018-12-20T22:15:07.833Z,4.57
2018-12-20T22:17:37.077Z,5.57
2018-12-20T22:20:07.985Z,3.53
2018-12-20T22:22:37.208Z,4.13
2018-12-20T22:25:09.879Z,2.87
2018-12-20T22:27:39.048Z,3.50
2018-12-20T22:30:09.758Z,3.47
2018-12-20T22:32:38.949Z,4.00
2018-12-20T22:35:08.307Z,3.80
2018-12-20T22:37:37.735Z,4.43
2018-12-20T22:40:08.199Z,3.40
2018-12-20T22:42:37.394Z,3.10
2018-12-20T22:45:08.181Z,3.57
2018-12-20T22:47:37.393Z,4.27
2018-12-20T22:50:09.088Z,4.23
2018-12-20T22:52:38.308Z,3.70
2018-12-20T22:55:07.735Z,4.17
2018-12-20T22:57:36.956Z,4.73
2018-12-20T23:00:08.189Z,4.97
2018-12-20T23:02:37.408Z,3.60
2018-12-20T23:05:07.068Z,3.30
2018-12-20T23:07:36.270Z,3.20
2018-12-20T23:10:06.039Z,3.83
2018-12-20T23:12:35.290Z,3.47
2018-12-20T23:15:05.137Z,3.70
2018-12-20T23:17:36.738Z,3.13
2018-12-20T23:20:07.090Z,4.23
2018-12-20T23:22:36.261Z,4.13
2018-12-20T23:25:05.681Z,3.90
2018-12-20T23:27:34.891Z,2.97
2018-12-20T23:30:04.926Z,4.87
2018-12-20T23:32:34.818Z,5.60
2018-12-20T23:35:04.129Z,3.57
2018-12-20T23:37:33.305Z,5.43
2018-12-20T23:40:02.524Z,4.13
2018-12-20T23:42:36.779Z,4.70
2018-12-20T23:45:07.697Z,4.97
2018-12-20T23:47:37.691Z,4.60
2018-12-20T23:50:07.066Z,5.53
2018-12-20T23:52:36.267Z,3.97
2018-12-20T23:55:05.796Z,3.50
2018-12-20T23:57:34.993Z,5.13
